Terminal Aerodrome Forecast
Issued by NWS Dallas/Fort Worth, TX

Home | Current Version | Previous Version | Text Only | Print | Product List | Glossary On
Versions: 1 2 3 4 5 6 7 8 9 10 11 12 13 14 15 16 17 18 19 20 21 22 23 24 25 26 27 28 29 30 31
000
FTUS44 KFWD 220850 AAA
TAFDFW
TAF AMD
KDFW 220850Z 2209/2312 27012KT P6SM FEW100
     FM221600 30022G32KT P6SM FEW250
     FM222300 30016KT P6SM FEW250
     FM230200 30010KT P6SM FEW250=

USA.gov is the U.S. government's official web portal to all federal, state and local government web resources and services.